sensor_id;sensor_type;location;lat;lon;timestamp;temperature;humidity
9949;DHT22;5013;51.840;8.276;2023-08-01T00:00:31;17.00;99.90
9949;DHT22;5013;51.840;8.276;2023-08-01T00:02:57;16.90;99.90
9949;DHT22;5013;51.840;8.276;2023-08-01T00:05:23;16.90;99.90
9949;DHT22;5013;51.840;8.276;2023-08-01T00:07:48;16.90;99.90
9949;DHT22;5013;51.840;8.276;2023-08-01T00:10:14;16.90;99.90
9949;DHT22;5013;51.840;8.276;2023-08-01T00:12:41;16.90;99.90
9949;DHT22;5013;51.840;8.276;2023-08-01T00:15:07;16.90;99.90
9949;DHT22;5013;51.840;8.276;2023-08-01T00:17:33;16.80;99.90
9949;DHT22;5013;51.840;8.276;2023-08-01T00:20:00;16.80;99.90
9949;DHT22;5013;51.840;8.276;2023-08-01T00:22:26;16.70;99.90
9949;DHT22;5013;51.840;8.276;2023-08-01T00:24:52;16.60;99.90
9949;DHT22;5013;51.840;8.276;2023-08-01T00:27:17;16.70;99.90
9949;DHT22;5013;51.840;8.276;2023-08-01T00:29:43;16.60;99.90
9949;DHT22;5013;51.840;8.276;2023-08-01T00:32:08;16.60;99.90
9949;DHT22;5013;51.840;8.276;2023-08-01T00:34:34;16.60;99.90
9949;DHT22;5013;51.840;8.276;2023-08-01T00:37:00;16.60;99.90
9949;DHT22;5013;51.840;8.276;2023-08-01T00:39:25;16.60;99.90
9949;DHT22;5013;51.840;8.276;2023-08-01T00:41:51;16.60;99.90
9949;DHT22;5013;51.840;8.276;2023-08-01T00:44:16;16.60;99.90
9949;DHT22;5013;51.840;8.276;2023-08-01T00:46:42;16.50;99.90
9949;DHT22;5013;51.840;8.276;2023-08-01T00:49:08;16.60;99.90
9949;DHT22;5013;51.840;8.276;2023-08-01T00:51:34;16.50;99.90
9949;DHT22;5013;51.840;8.276;2023-08-01T00:54:00;16.50;99.90
9949;DHT22;5013;51.840;8.276;2023-08-01T00:56:26;16.50;99.90
9949;DHT22;5013;51.840;8.276;2023-08-01T00:58:51;16.50;99.90
9949;DHT22;5013;51.840;8.276;2023-08-01T01:01:17;16.40;99.90
9949;DHT22;5013;51.840;8.276;2023-08-01T01:03:43;16.50;99.90
9949;DHT22;5013;51.840;8.276;2023-08-01T01:08:37;16.50;99.90
9949;DHT22;5013;51.840;8.276;2023-08-01T01:11:03;16.50;99.90
9949;DHT22;5013;51.840;8.276;2023-08-01T01:13:29;16.60;99.90
9949;DHT22;5013;51.840;8.276;2023-08-01T01:15:55;16.60;99.90
9949;DHT22;5013;51.840;8.276;2023-08-01T01:18:21;16.80;99.90
9949;DHT22;5013;51.840;8.276;2023-08-01T01:20:46;16.50;99.90
9949;DHT22;5013;51.840;8.276;2023-08-01T01:23:12;16.60;99.90
9949;DHT22;5013;51.840;8.276;2023-08-01T01:25:39;16.60;99.90
9949;DHT22;5013;51.840;8.276;2023-08-01T01:28:06;16.50;99.90
9949;DHT22;5013;51.840;8.276;2023-08-01T01:30:33;16.60;99.90
9949;DHT22;5013;51.840;8.276;2023-08-01T01:33:00;16.50;99.90
9949;DHT22;5013;51.840;8.276;2023-08-01T01:35:26;16.50;99.90
9949;DHT22;5013;51.840;8.276;2023-08-01T01:37:51;16.60;99.90
9949;DHT22;5013;51.840;8.276;2023-08-01T01:40:17;16.50;99.90
9949;DHT22;5013;51.840;8.276;2023-08-01T01:42:43;16.50;99.90
9949;DHT22;5013;51.840;8.276;2023-08-01T01:45:09;16.40;99.90
9949;DHT22;5013;51.840;8.276;2023-08-01T01:47:34;16.50;99.90
9949;DHT22;5013;51.840;8.276;2023-08-01T01:50:00;16.50;99.90
9949;DHT22;5013;51.840;8.276;2023-08-01T01:52:25;16.50;99.90
9949;DHT22;5013;51.840;8.276;2023-08-01T01:54:51;16.40;99.90
9949;DHT22;5013;51.840;8.276;2023-08-01T01:57:16;16.40;99.90
9949;DHT22;5013;51.840;8.276;2023-08-01T01:59:42;16.50;99.90
9949;DHT22;5013;51.840;8.276;2023-08-01T02:02:08;16.40;99.90
9949;DHT22;5013;51.840;8.276;2023-08-01T02:04:33;16.50;99.90
9949;DHT22;5013;51.840;8.276;2023-08-01T02:06:59;16.30;99.90
9949;DHT22;5013;51.840;8.276;2023-08-01T02:09:24;16.50;99.90
9949;DHT22;5013;51.840;8.276;2023-08-01T02:11:50;16.40;99.90
9949;DHT22;5013;51.840;8.276;2023-08-01T02:14:15;16.40;99.90
9949;DHT22;5013;51.840;8.276;2023-08-01T02:16:41;16.40;99.90
9949;DHT22;5013;51.840;8.276;2023-08-01T02:19:07;16.40;99.90
9949;DHT22;5013;51.840;8.276;2023-08-01T02:21:32;16.50;99.90
9949;DHT22;5013;51.840;8.276;2023-08-01T02:23:58;16.50;99.90
9949;DHT22;5013;51.840;8.276;2023-08-01T02:26:23;16.40;99.90
9949;DHT22;5013;51.840;8.276;2023-08-01T02:28:50;16.40;99.90
9949;DHT22;5013;51.840;8.276;2023-08-01T02:31:16;16.40;99.90
9949;DHT22;5013;51.840;8.276;2023-08-01T02:33:42;16.40;99.90
9949;DHT22;5013;51.840;8.276;2023-08-01T02:36:08;16.40;99.90
9949;DHT22;5013;51.840;8.276;2023-08-01T02:38:33;16.40;99.90
9949;DHT22;5013;51.840;8.276;2023-08-01T02:40:59;16.40;99.90
9949;DHT22;5013;51.840;8.276;2023-08-01T02:43:25;16.40;99.90
9949;DHT22;5013;51.840;8.276;2023-08-01T02:45:50;16.40;99.90
9949;DHT22;5013;51.840;8.276;2023-08-01T02:48:16;16.60;99.90
9949;DHT22;5013;51.840;8.276;2023-08-01T02:50:42;16.40;99.90
9949;DHT22;5013;51.840;8.276;2023-08-01T02:53:07;16.50;99.90
9949;DHT22;5013;51.840;8.276;2023-08-01T02:55:33;16.40;99.90
9949;DHT22;5013;51.840;8.276;2023-08-01T02:57:58;16.40;99.90
9949;DHT22;5013;51.840;8.276;2023-08-01T03:00:24;16.40;99.90
9949;DHT22;5013;51.840;8.276;2023-08-01T03:02:51;16.40;99.90
9949;DHT22;5013;51.840;8.276;2023-08-01T03:05:17;16.40;99.90
9949;DHT22;5013;51.840;8.276;2023-08-01T03:07:42;16.40;99.90
9949;DHT22;5013;51.840;8.276;2023-08-01T03:10:08;16.40;99.90
9949;DHT22;5013;51.840;8.276;2023-08-01T03:12:34;16.40;99.90
9949;DHT22;5013;51.840;8.276;2023-08-01T03:15:00;16.40;99.90
9949;DHT22;5013;51.840;8.276;2023-08-01T03:17:26;16.30;99.90
9949;DHT22;5013;51.840;8.276;2023-08-01T03:19:51;16.40;99.90
9949;DHT22;5013;51.840;8.276;2023-08-01T03:22:17;16.40;99.90
9949;DHT22;5013;51.840;8.276;2023-08-01T03:24:42;16.50;99.90
9949;DHT22;5013;51.840;8.276;2023-08-01T03:27:08;16.40;99.90
9949;DHT22;5013;51.840;8.276;2023-08-01T03:29:33;16.40;99.90
9949;DHT22;5013;51.840;8.276;2023-08-01T03:31:59;16.40;99.90
9949;DHT22;5013;51.840;8.276;2023-08-01T03:34:25;16.40;99.90
9949;DHT22;5013;51.840;8.276;2023-08-01T03:36:52;16.40;99.90
9949;DHT22;5013;51.840;8.276;2023-08-01T03:39:18;16.30;99.90
9949;DHT22;5013;51.840;8.276;2023-08-01T03:41:43;16.40;99.90
9949;DHT22;5013;51.840;8.276;2023-08-01T03:44:09;16.50;99.90
9949;DHT22;5013;51.840;8.276;2023-08-01T03:46:35;16.40;99.90
9949;DHT22;5013;51.840;8.276;2023-08-01T03:49:00;16.40;99.90
9949;DHT22;5013;51.840;8.276;2023-08-01T03:51:26;16.40;99.90
9949;DHT22;5013;51.840;8.276;2023-08-01T03:53:51;16.50;99.90
9949;DHT22;5013;51.840;8.276;2023-08-01T03:56:17;16.40;99.90
9949;DHT22;5013;51.840;8.276;2023-08-01T03:58:42;16.40;99.90
9949;DHT22;5013;51.840;8.276;2023-08-01T04:01:08;16.40;99.90
9949;DHT22;5013;51.840;8.276;2023-08-01T04:03:34;16.40;99.90
9949;DHT22;5013;51.840;8.276;2023-08-01T04:05:59;16.40;99.90
9949;DHT22;5013;51.840;8.276;2023-08-01T04:08:25;16.50;99.90
9949;DHT22;5013;51.840;8.276;2023-08-01T04:10:50;16.40;99.90
9949;DHT22;5013;51.840;8.276;2023-08-01T04:13:16;16.40;99.90
9949;DHT22;5013;51.840;8.276;2023-08-01T04:15:42;16.50;99.90
9949;DHT22;5013;51.840;8.276;2023-08-01T04:18:07;16.40;99.90
9949;DHT22;5013;51.840;8.276;2023-08-01T04:20:33;16.40;99.90
9949;DHT22;5013;51.840;8.276;2023-08-01T04:22:58;16.40;99.90
9949;DHT22;5013;51.840;8.276;2023-08-01T04:25:24;16.30;99.90
9949;DHT22;5013;51.840;8.276;2023-08-01T04:27:52;16.30;99.90
9949;DHT22;5013;51.840;8.276;2023-08-01T04:30:18;16.50;99.90
9949;DHT22;5013;51.840;8.276;2023-08-01T04:32:43;16.40;99.90
9949;DHT22;5013;51.840;8.276;2023-08-01T04:35:09;16.20;99.90
9949;DHT22;5013;51.840;8.276;2023-08-01T04:37:34;16.20;99.90
9949;DHT22;5013;51.840;8.276;2023-08-01T04:40:00;16.10;99.90
9949;DHT22;5013;51.840;8.276;2023-08-01T04:42:26;16.00;99.90
9949;DHT22;5013;51.840;8.276;2023-08-01T04:44:51;16.10;99.90
9949;DHT22;5013;51.840;8.276;2023-08-01T04:47:18;16.10;99.90
9949;DHT22;5013;51.840;8.276;2023-08-01T04:49:44;16.00;99.90
9949;DHT22;5013;51.840;8.276;2023-08-01T04:52:09;16.10;99.90
9949;DHT22;5013;51.840;8.276;2023-08-01T04:54:35;16.10;99.90
9949;DHT22;5013;51.840;8.276;2023-08-01T04:57:01;16.00;99.90
9949;DHT22;5013;51.840;8.276;2023-08-01T04:59:26;16.20;99.90
9949;DHT22;5013;51.840;8.276;2023-08-01T05:01:52;16.20;99.90
9949;DHT22;5013;51.840;8.276;2023-08-01T05:04:17;16.10;99.90
9949;DHT22;5013;51.840;8.276;2023-08-01T05:06:43;16.20;99.90
9949;DHT22;5013;51.840;8.276;2023-08-01T05:09:08;16.20;99.90
9949;DHT22;5013;51.840;8.276;2023-08-01T05:11:34;16.30;99.90
9949;DHT22;5013;51.840;8.276;2023-08-01T05:14:00;16.30;99.90
9949;DHT22;5013;51.840;8.276;2023-08-01T05:16:25;16.30;99.90
9949;DHT22;5013;51.840;8.276;2023-08-01T05:18:51;16.20;99.90
9949;DHT22;5013;51.840;8.276;2023-08-01T05:21:16;16.30;99.90
9949;DHT22;5013;51.840;8.276;2023-08-01T05:23:42;16.30;99.90
9949;DHT22;5013;51.840;8.276;2023-08-01T05:26:07;16.20;99.90
9949;DHT22;5013;51.840;8.276;2023-08-01T05:28:33;16.20;99.90
9949;DHT22;5013;51.840;8.276;2023-08-01T05:30:58;16.10;99.90
9949;DHT22;5013;51.840;8.276;2023-08-01T05:33:24;16.10;99.90
9949;DHT22;5013;51.840;8.276;2023-08-01T05:35:50;16.10;99.90
9949;DHT22;5013;51.840;8.276;2023-08-01T05:38:15;16.10;99.90
9949;DHT22;5013;51.840;8.276;2023-08-01T05:40:41;16.10;99.90
9949;DHT22;5013;51.840;8.276;2023-08-01T05:43:07;16.10;99.90
9949;DHT22;5013;51.840;8.276;2023-08-01T05:45:34;16.20;99.90
9949;DHT22;5013;51.840;8.276;2023-08-01T05:48:01;16.10;99.90
9949;DHT22;5013;51.840;8.276;2023-08-01T05:50:27;16.20;99.90
9949;DHT22;5013;51.840;8.276;2023-08-01T05:52:52;16.20;99.90
9949;DHT22;5013;51.840;8.276;2023-08-01T05:55:18;16.20;99.90
9949;DHT22;5013;51.840;8.276;2023-08-01T05:57:43;16.40;99.90
9949;DHT22;5013;51.840;8.276;2023-08-01T06:00:09;16.30;99.90
9949;DHT22;5013;51.840;8.276;2023-08-01T06:02:35;16.20;99.90
9949;DHT22;5013;51.840;8.276;2023-08-01T06:05:01;16.30;99.90
9949;DHT22;5013;51.840;8.276;2023-08-01T06:07:32;16.20;99.90
9949;DHT22;5013;51.840;8.276;2023-08-01T06:09:58;16.20;99.90
9949;DHT22;5013;51.840;8.276;2023-08-01T06:12:24;16.10;99.90
9949;DHT22;5013;51.840;8.276;2023-08-01T06:14:49;16.20;99.90
9949;DHT22;5013;51.840;8.276;2023-08-01T06:17:15;16.30;99.90
9949;DHT22;5013;51.840;8.276;2023-08-01T06:19:41;16.40;99.90
9949;DHT22;5013;51.840;8.276;2023-08-01T06:22:06;16.40;99.90
9949;DHT22;5013;51.840;8.276;2023-08-01T06:24:32;16.50;99.90
9949;DHT22;5013;51.840;8.276;2023-08-01T06:26:57;16.60;99.90
9949;DHT22;5013;51.840;8.276;2023-08-01T06:29:23;16.80;99.90
9949;DHT22;5013;51.840;8.276;2023-08-01T06:31:50;17.00;99.90
9949;DHT22;5013;51.840;8.276;2023-08-01T06:34:16;17.10;99.90
9949;DHT22;5013;51.840;8.276;2023-08-01T06:36:41;17.00;99.90
9949;DHT22;5013;51.840;8.276;2023-08-01T06:39:07;17.10;99.90
9949;DHT22;5013;51.840;8.276;2023-08-01T06:41:32;17.00;99.90
9949;DHT22;5013;51.840;8.276;2023-08-01T06:43:58;17.10;99.90
9949;DHT22;5013;51.840;8.276;2023-08-01T06:46:24;17.10;99.90
9949;DHT22;5013;51.840;8.276;2023-08-01T06:48:49;17.10;99.90
9949;DHT22;5013;51.840;8.276;2023-08-01T06:51:15;17.10;99.90
9949;DHT22;5013;51.840;8.276;2023-08-01T06:53:40;17.10;96.50
9949;DHT22;5013;51.840;8.276;2023-08-01T06:56:06;17.00;47.00
9949;DHT22;5013;51.840;8.276;2023-08-01T06:58:32;16.90;99.90
9949;DHT22;5013;51.840;8.276;2023-08-01T07:00:57;16.80;99.90
9949;DHT22;5013;51.840;8.276;2023-08-01T07:03:23;16.70;99.90
9949;DHT22;5013;51.840;8.276;2023-08-01T07:05:49;16.60;99.90
9949;DHT22;5013;51.840;8.276;2023-08-01T07:08:14;16.60;99.90
9949;DHT22;5013;51.840;8.276;2023-08-01T07:10:40;16.50;99.90
9949;DHT22;5013;51.840;8.276;2023-08-01T07:13:05;16.60;99.90
9949;DHT22;5013;51.840;8.276;2023-08-01T07:15:32;16.50;99.90
9949;DHT22;5013;51.840;8.276;2023-08-01T07:17:57;16.50;99.90
9949;DHT22;5013;51.840;8.276;2023-08-01T07:20:23;16.70;99.90
9949;DHT22;5013;51.840;8.276;2023-08-01T07:22:49;16.70;99.90
9949;DHT22;5013;51.840;8.276;2023-08-01T07:25:14;16.80;99.90
9949;DHT22;5013;51.840;8.276;2023-08-01T07:27:41;17.00;99.90
9949;DHT22;5013;51.840;8.276;2023-08-01T07:30:07;17.00;99.90
9949;DHT22;5013;51.840;8.276;2023-08-01T07:32:33;17.00;99.90
9949;DHT22;5013;51.840;8.276;2023-08-01T07:34:58;17.10;94.40
9949;DHT22;5013;51.840;8.276;2023-08-01T07:37:24;17.30;81.20
9949;DHT22;5013;51.840;8.276;2023-08-01T07:39:50;17.50;30.30
9949;DHT22;5013;51.840;8.276;2023-08-01T07:42:16;17.50;1.00
9949;DHT22;5013;51.840;8.276;2023-08-01T07:44:41;17.40;1.00
9949;DHT22;5013;51.840;8.276;2023-08-01T07:47:07;17.30;1.00
9949;DHT22;5013;51.840;8.276;2023-08-01T07:49:33;17.10;10.20
9949;DHT22;5013;51.840;8.276;2023-08-01T07:51:58;17.20;92.40
9949;DHT22;5013;51.840;8.276;2023-08-01T07:54:24;17.00;99.90
9949;DHT22;5013;51.840;8.276;2023-08-01T07:56:50;17.10;99.90
9949;DHT22;5013;51.840;8.276;2023-08-01T07:59:15;17.10;99.90
9949;DHT22;5013;51.840;8.276;2023-08-01T08:01:41;17.10;99.90
9949;DHT22;5013;51.840;8.276;2023-08-01T08:04:07;17.30;99.90
9949;DHT22;5013;51.840;8.276;2023-08-01T08:06:33;17.60;99.90
9949;DHT22;5013;51.840;8.276;2023-08-01T08:08:58;18.30;99.90
9949;DHT22;5013;51.840;8.276;2023-08-01T08:11:24;18.80;1.00
9949;DHT22;5013;51.840;8.276;2023-08-01T08:13:49;18.80;99.90
9949;DHT22;5013;51.840;8.276;2023-08-01T08:16:15;18.60;1.00
9949;DHT22;5013;51.840;8.276;2023-08-01T08:18:41;18.60;99.90
9949;DHT22;5013;51.840;8.276;2023-08-01T08:21:07;18.60;99.90
9949;DHT22;5013;51.840;8.276;2023-08-01T08:23:33;18.50;99.90
9949;DHT22;5013;51.840;8.276;2023-08-01T08:25:58;18.40;99.90
9949;DHT22;5013;51.840;8.276;2023-08-01T08:28:29;18.30;99.90
9949;DHT22;5013;51.840;8.276;2023-08-01T08:30:56;17.80;99.90
9949;DHT22;5013;51.840;8.276;2023-08-01T08:33:22;17.60;1.00
9949;DHT22;5013;51.840;8.276;2023-08-01T08:35:48;17.50;1.00
9949;DHT22;5013;51.840;8.276;2023-08-01T08:38:14;17.30;55.20
9949;DHT22;5013;51.840;8.276;2023-08-01T08:40:41;17.20;99.90
9949;DHT22;5013;51.840;8.276;2023-08-01T08:43:09;17.30;99.90
9949;DHT22;5013;51.840;8.276;2023-08-01T08:45:35;17.50;99.90
9949;DHT22;5013;51.840;8.276;2023-08-01T08:48:06;17.60;99.90
9949;DHT22;5013;51.840;8.276;2023-08-01T08:50:35;17.60;50.40
9949;DHT22;5013;51.840;8.276;2023-08-01T08:53:02;17.70;47.60
9949;DHT22;5013;51.840;8.276;2023-08-01T08:55:29;17.70;1.00
9949;DHT22;5013;51.840;8.276;2023-08-01T08:57:55;18.10;99.90
9949;DHT22;5013;51.840;8.276;2023-08-01T09:00:21;18.50;1.00
9949;DHT22;5013;51.840;8.276;2023-08-01T09:02:47;18.90;1.00
9949;DHT22;5013;51.840;8.276;2023-08-01T09:05:13;19.00;1.00
9949;DHT22;5013;51.840;8.276;2023-08-01T09:07:42;19.00;1.00
9949;DHT22;5013;51.840;8.276;2023-08-01T09:10:08;18.90;1.00
9949;DHT22;5013;51.840;8.276;2023-08-01T09:12:34;19.10;1.00
9949;DHT22;5013;51.840;8.276;2023-08-01T09:15:00;19.20;1.00
9949;DHT22;5013;51.840;8.276;2023-08-01T09:17:26;19.60;1.00
9949;DHT22;5013;51.840;8.276;2023-08-01T09:20:05;20.00;1.00
9949;DHT22;5013;51.840;8.276;2023-08-01T09:22:42;20.10;1.00
9949;DHT22;5013;51.840;8.276;2023-08-01T09:25:08;20.00;99.90
9949;DHT22;5013;51.840;8.276;2023-08-01T09:27:33;19.80;62.90
9949;DHT22;5013;51.840;8.276;2023-08-01T09:30:13;19.70;99.90
9949;DHT22;5013;51.840;8.276;2023-08-01T09:32:51;19.40;99.90
9949;DHT22;5013;51.840;8.276;2023-08-01T09:35:17;19.40;1.00
9949;DHT22;5013;51.840;8.276;2023-08-01T09:37:43;19.40;1.00
9949;DHT22;5013;51.840;8.276;2023-08-01T09:40:09;19.60;1.00
9949;DHT22;5013;51.840;8.276;2023-08-01T09:42:40;19.80;99.90
9949;DHT22;5013;51.840;8.276;2023-08-01T09:45:11;19.60;1.00
9949;DHT22;5013;51.840;8.276;2023-08-01T09:47:37;19.80;1.00
9949;DHT22;5013;51.840;8.276;2023-08-01T09:50:03;19.90;1.00
9949;DHT22;5013;51.840;8.276;2023-08-01T09:52:29;19.90;1.00
9949;DHT22;5013;51.840;8.276;2023-08-01T09:54:55;19.90;1.00
9949;DHT22;5013;51.840;8.276;2023-08-01T09:57:22;20.00;99.90
9949;DHT22;5013;51.840;8.276;2023-08-01T09:59:49;20.20;1.00
9949;DHT22;5013;51.840;8.276;2023-08-01T10:02:16;20.10;1.00
9949;DHT22;5013;51.840;8.276;2023-08-01T10:04:45;20.30;12.30
9949;DHT22;5013;51.840;8.276;2023-08-01T10:07:12;20.30;99.90
9949;DHT22;5013;51.840;8.276;2023-08-01T10:09:40;20.50;1.00
9949;DHT22;5013;51.840;8.276;2023-08-01T10:12:07;20.50;73.70
9949;DHT22;5013;51.840;8.276;2023-08-01T10:14:33;20.40;99.90
9949;DHT22;5013;51.840;8.276;2023-08-01T10:16:59;20.70;99.90
9949;DHT22;5013;51.840;8.276;2023-08-01T10:19:26;20.50;1.00
9949;DHT22;5013;51.840;8.276;2023-08-01T10:21:52;20.60;99.90
9949;DHT22;5013;51.840;8.276;2023-08-01T10:24:18;20.80;1.00
9949;DHT22;5013;51.840;8.276;2023-08-01T10:26:45;21.00;91.50
9949;DHT22;5013;51.840;8.276;2023-08-01T10:29:14;21.10;10.80
9949;DHT22;5013;51.840;8.276;2023-08-01T10:31:50;21.10;1.00
9949;DHT22;5013;51.840;8.276;2023-08-01T10:34:16;21.00;99.90
9949;DHT22;5013;51.840;8.276;2023-08-01T10:36:56;20.70;1.00
9949;DHT22;5013;51.840;8.276;2023-08-01T10:39:22;20.70;1.00
9949;DHT22;5013;51.840;8.276;2023-08-01T10:42:03;20.90;99.90
9949;DHT22;5013;51.840;8.276;2023-08-01T10:44:30;21.30;99.90
9949;DHT22;5013;51.840;8.276;2023-08-01T10:47:03;21.50;1.00
9949;DHT22;5013;51.840;8.276;2023-08-01T10:49:42;21.70;99.90
9949;DHT22;5013;51.840;8.276;2023-08-01T10:52:20;21.70;1.00
9949;DHT22;5013;51.840;8.276;2023-08-01T10:55:04;21.40;99.90
9949;DHT22;5013;51.840;8.276;2023-08-01T10:57:36;21.10;59.90
9949;DHT22;5013;51.840;8.276;2023-08-01T11:00:03;19.90;1.00
9949;DHT22;5013;51.840;8.276;2023-08-01T11:02:30;18.30;1.00
9949;DHT22;5013;51.840;8.276;2023-08-01T11:05:01;17.60;99.90
9949;DHT22;5013;51.840;8.276;2023-08-01T11:07:27;17.30;99.90
9949;DHT22;5013;51.840;8.276;2023-08-01T11:10:09;17.20;1.00
9949;DHT22;5013;51.840;8.276;2023-08-01T11:12:40;17.20;99.90
9949;DHT22;5013;51.840;8.276;2023-08-01T11:15:08;17.40;1.00
9949;DHT22;5013;51.840;8.276;2023-08-01T11:17:36;17.70;1.00
9949;DHT22;5013;51.840;8.276;2023-08-01T11:20:06;17.90;1.00
9949;DHT22;5013;51.840;8.276;2023-08-01T11:22:33;18.10;1.00
9949;DHT22;5013;51.840;8.276;2023-08-01T11:24:58;18.10;99.90
9949;DHT22;5013;51.840;8.276;2023-08-01T11:27:25;18.20;1.00
9949;DHT22;5013;51.840;8.276;2023-08-01T11:29:51;18.30;1.00
9949;DHT22;5013;51.840;8.276;2023-08-01T11:32:18;18.20;1.00
9949;DHT22;5013;51.840;8.276;2023-08-01T11:34:45;18.40;19.00
9949;DHT22;5013;51.840;8.276;2023-08-01T11:37:18;18.60;99.90
9949;DHT22;5013;51.840;8.276;2023-08-01T11:39:46;18.80;1.00
9949;DHT22;5013;51.840;8.276;2023-08-01T11:42:16;19.30;1.00
9949;DHT22;5013;51.840;8.276;2023-08-01T11:44:43;19.60;99.90
9949;DHT22;5013;51.840;8.276;2023-08-01T11:47:13;19.80;1.00
9949;DHT22;5013;51.840;8.276;2023-08-01T11:49:44;20.10;1.00
9949;DHT22;5013;51.840;8.276;2023-08-01T11:52:10;20.10;1.00
9949;DHT22;5013;51.840;8.276;2023-08-01T11:54:45;20.40;1.00
9949;DHT22;5013;51.840;8.276;2023-08-01T11:57:10;20.70;99.90
9949;DHT22;5013;51.840;8.276;2023-08-01T11:59:55;20.90;1.00
9949;DHT22;5013;51.840;8.276;2023-08-01T12:02:25;21.20;1.00
9949;DHT22;5013;51.840;8.276;2023-08-01T12:04:52;21.20;1.00
9949;DHT22;5013;51.840;8.276;2023-08-01T12:07:18;21.40;1.00
9949;DHT22;5013;51.840;8.276;2023-08-01T12:09:54;21.50;14.30
9949;DHT22;5013;51.840;8.276;2023-08-01T12:12:20;21.50;99.90
9949;DHT22;5013;51.840;8.276;2023-08-01T12:14:45;21.40;99.90
9949;DHT22;5013;51.840;8.276;2023-08-01T12:17:11;21.40;1.00
9949;DHT22;5013;51.840;8.276;2023-08-01T12:19:36;21.20;1.00
9949;DHT22;5013;51.840;8.276;2023-08-01T12:22:02;21.70;99.90
9949;DHT22;5013;51.840;8.276;2023-08-01T12:24:28;21.70;99.90
9949;DHT22;5013;51.840;8.276;2023-08-01T12:26:53;21.60;99.90
9949;DHT22;5013;51.840;8.276;2023-08-01T12:29:19;21.90;99.90
9949;DHT22;5013;51.840;8.276;2023-08-01T12:31:44;21.80;1.00
9949;DHT22;5013;51.840;8.276;2023-08-01T12:34:11;21.60;1.00
9949;DHT22;5013;51.840;8.276;2023-08-01T12:36:37;21.60;99.90
9949;DHT22;5013;51.840;8.276;2023-08-01T12:39:02;21.30;99.90
9949;DHT22;5013;51.840;8.276;2023-08-01T12:41:28;21.10;99.90
9949;DHT22;5013;51.840;8.276;2023-08-01T12:43:54;21.00;1.00
9949;DHT22;5013;51.840;8.276;2023-08-01T12:46:19;21.00;1.00
9949;DHT22;5013;51.840;8.276;2023-08-01T12:48:45;20.80;1.00
9949;DHT22;5013;51.840;8.276;2023-08-01T12:51:11;20.80;1.00
9949;DHT22;5013;51.840;8.276;2023-08-01T12:53:37;20.90;99.90
9949;DHT22;5013;51.840;8.276;2023-08-01T12:56:04;21.00;99.90
9949;DHT22;5013;51.840;8.276;2023-08-01T12:58:30;20.90;1.00
9949;DHT22;5013;51.840;8.276;2023-08-01T13:00:55;20.90;1.00
9949;DHT22;5013;51.840;8.276;2023-08-01T13:03:21;20.80;99.90
9949;DHT22;5013;51.840;8.276;2023-08-01T13:05:46;21.00;99.90
9949;DHT22;5013;51.840;8.276;2023-08-01T13:08:12;21.10;99.90
9949;DHT22;5013;51.840;8.276;2023-08-01T13:10:38;21.00;99.20
9949;DHT22;5013;51.840;8.276;2023-08-01T13:13:04;20.50;1.00
9949;DHT22;5013;51.840;8.276;2023-08-01T13:15:30;20.20;99.90
9949;DHT22;5013;51.840;8.276;2023-08-01T13:17:56;20.00;1.00
9949;DHT22;5013;51.840;8.276;2023-08-01T13:20:23;20.20;1.00
9949;DHT22;5013;51.840;8.276;2023-08-01T13:22:50;20.30;1.00
9949;DHT22;5013;51.840;8.276;2023-08-01T13:25:17;20.40;99.90
9949;DHT22;5013;51.840;8.276;2023-08-01T13:27:43;20.30;1.00
9949;DHT22;5013;51.840;8.276;2023-08-01T13:30:09;20.30;99.90
9949;DHT22;5013;51.840;8.276;2023-08-01T13:32:35;20.00;1.00
9949;DHT22;5013;51.840;8.276;2023-08-01T13:35:01;19.90;99.90
9949;DHT22;5013;51.840;8.276;2023-08-01T13:37:27;19.90;99.90
9949;DHT22;5013;51.840;8.276;2023-08-01T13:39:55;19.80;1.00
9949;DHT22;5013;51.840;8.276;2023-08-01T13:42:21;19.80;99.90
9949;DHT22;5013;51.840;8.276;2023-08-01T13:44:47;19.80;99.90
9949;DHT22;5013;51.840;8.276;2023-08-01T13:47:12;19.60;99.90
9949;DHT22;5013;51.840;8.276;2023-08-01T13:49:38;19.60;1.00
9949;DHT22;5013;51.840;8.276;2023-08-01T13:52:04;19.80;99.90
9949;DHT22;5013;51.840;8.276;2023-08-01T13:54:30;20.00;1.00
9949;DHT22;5013;51.840;8.276;2023-08-01T13:56:55;20.20;99.90
9949;DHT22;5013;51.840;8.276;2023-08-01T13:59:21;20.20;1.00
9949;DHT22;5013;51.840;8.276;2023-08-01T14:01:47;20.50;1.00
9949;DHT22;5013;51.840;8.276;2023-08-01T14:04:12;20.50;1.00
9949;DHT22;5013;51.840;8.276;2023-08-01T14:06:41;20.40;1.00
9949;DHT22;5013;51.840;8.276;2023-08-01T14:09:08;20.40;99.90
9949;DHT22;5013;51.840;8.276;2023-08-01T14:11:34;20.50;1.00
9949;DHT22;5013;51.840;8.276;2023-08-01T14:14:00;20.80;1.00
9949;DHT22;5013;51.840;8.276;2023-08-01T14:16:25;21.30;99.90
9949;DHT22;5013;51.840;8.276;2023-08-01T14:18:51;21.50;99.90
9949;DHT22;5013;51.840;8.276;2023-08-01T14:21:17;21.50;99.90
9949;DHT22;5013;51.840;8.276;2023-08-01T14:23:42;21.60;95.20
9949;DHT22;5013;51.840;8.276;2023-08-01T14:26:08;21.60;99.90
9949;DHT22;5013;51.840;8.276;2023-08-01T14:28:34;21.80;99.90
9949;DHT22;5013;51.840;8.276;2023-08-01T14:31:03;21.90;99.90
9949;DHT22;5013;51.840;8.276;2023-08-01T14:33:29;22.00;99.90
9949;DHT22;5013;51.840;8.276;2023-08-01T14:35:59;22.00;99.90
9949;DHT22;5013;51.840;8.276;2023-08-01T14:38:30;21.80;99.90
9949;DHT22;5013;51.840;8.276;2023-08-01T14:40:56;21.60;99.90
9949;DHT22;5013;51.840;8.276;2023-08-01T14:43:21;21.60;99.90
9949;DHT22;5013;51.840;8.276;2023-08-01T14:45:47;21.50;99.90
9949;DHT22;5013;51.840;8.276;2023-08-01T14:48:13;21.60;99.90
9949;DHT22;5013;51.840;8.276;2023-08-01T14:50:39;21.70;55.50
9949;DHT22;5013;51.840;8.276;2023-08-01T14:53:04;21.80;99.90
9949;DHT22;5013;51.840;8.276;2023-08-01T14:55:32;22.10;64.60
9949;DHT22;5013;51.840;8.276;2023-08-01T14:57:58;22.00;2.70
9949;DHT22;5013;51.840;8.276;2023-08-01T15:00:23;22.00;1.00
9949;DHT22;5013;51.840;8.276;2023-08-01T15:02:49;21.70;1.00
9949;DHT22;5013;51.840;8.276;2023-08-01T15:05:14;21.70;99.90
9949;DHT22;5013;51.840;8.276;2023-08-01T15:07:40;21.70;41.90
9949;DHT22;5013;51.840;8.276;2023-08-01T15:10:06;21.60;99.90
9949;DHT22;5013;51.840;8.276;2023-08-01T15:12:32;21.70;99.90
9949;DHT22;5013;51.840;8.276;2023-08-01T15:14:57;22.20;99.90
9949;DHT22;5013;51.840;8.276;2023-08-01T15:17:23;22.30;11.20
9949;DHT22;5013;51.840;8.276;2023-08-01T15:19:49;22.20;99.90
9949;DHT22;5013;51.840;8.276;2023-08-01T15:22:16;22.20;99.90
9949;DHT22;5013;51.840;8.276;2023-08-01T15:24:42;22.00;99.90
9949;DHT22;5013;51.840;8.276;2023-08-01T15:27:09;21.70;99.90
9949;DHT22;5013;51.840;8.276;2023-08-01T15:29:35;21.40;99.90
9949;DHT22;5013;51.840;8.276;2023-08-01T15:32:01;21.10;99.90
9949;DHT22;5013;51.840;8.276;2023-08-01T15:34:27;20.80;1.00
9949;DHT22;5013;51.840;8.276;2023-08-01T15:36:53;20.40;99.90
9949;DHT22;5013;51.840;8.276;2023-08-01T15:39:19;19.80;1.00
9949;DHT22;5013;51.840;8.276;2023-08-01T15:41:46;19.50;1.00
9949;DHT22;5013;51.840;8.276;2023-08-01T15:44:12;19.20;99.90
9949;DHT22;5013;51.840;8.276;2023-08-01T15:46:38;19.10;99.90
9949;DHT22;5013;51.840;8.276;2023-08-01T15:49:04;18.90;99.90
9949;DHT22;5013;51.840;8.276;2023-08-01T15:51:30;18.90;99.90
9949;DHT22;5013;51.840;8.276;2023-08-01T15:53:56;18.90;1.00
9949;DHT22;5013;51.840;8.276;2023-08-01T15:56:21;19.10;99.90
9949;DHT22;5013;51.840;8.276;2023-08-01T15:58:47;19.20;73.70
9949;DHT22;5013;51.840;8.276;2023-08-01T16:01:12;19.50;99.90